Time;durP1;ratioP1;P1;durP2;ratioP2;P2;SDS_P1;SDS_P2;PMS_P1;PMS_P2;Temp;Humidity;BMP_temperature;BMP_pressure;BME280_temperature;BME280_humidity;BME280_pressure;Samples;Min_cycle;Max_cycle;Signal;HPM_P1;HPM_P2
2022/10/17 00:01:29;;;;;;;12.20;8.50;;;15.30;99.90;;;;;;5032736;28;20113;-68
2022/10/17 00:03:54;;;;;;;12.35;8.63;;;15.30;99.90;;;;;;5032875;28;20029;-68
2022/10/17 00:06:20;;;;;;;12.23;8.43;;;15.20;99.90;;;;;;5031490;28;20033;-68
2022/10/17 00:08:45;;;;;;;15.60;8.90;;;15.20;99.90;;;;;;5032978;28;20033;-68
2022/10/17 00:11:22;;;;;;;16.48;8.70;;;15.10;99.90;;;;;;5032548;28;20433;-67
2022/10/17 00:13:50;;;;;;;14.98;9.02;;;15.10;99.90;;;;;;5032694;28;20036;-67
2022/10/17 00:16:23;;;;;;;19.10;8.10;;;15.10;99.90;;;;;;5032655;28;20475;-68
2022/10/17 00:18:49;;;;;;;11.18;8.48;;;15.00;99.90;;;;;;5032940;28;20406;-67
2022/10/17 00:21:17;;;;;;;17.63;8.40;;;15.10;99.90;;;;;;5033066;28;20032;-67
2022/10/17 00:23:42;;;;;;;12.30;8.35;;;15.10;99.90;;;;;;5035074;28;20064;-67
2022/10/17 00:26:09;;;;;;;14.77;8.30;;;15.20;99.90;;;;;;5036148;28;20057;-67
2022/10/17 00:28:34;;;;;;;13.82;7.85;;;15.20;99.90;;;;;;5036472;28;20044;-68
2022/10/17 00:31:02;;;;;;;11.80;7.13;;;15.30;99.90;;;;;;5036445;28;20037;-67
2022/10/17 00:33:29;;;;;;;10.93;7.20;;;15.30;99.90;;;;;;5036570;28;20037;-67
2022/10/17 00:36:12;;;;;;;18.15;7.90;;;15.20;99.90;;;;;;5036089;28;20112;-67
2022/10/17 00:38:38;;;;;;;13.95;7.60;;;15.10;99.90;;;;;;5036561;28;20101;-68
2022/10/17 00:41:04;;;;;;;11.15;7.00;;;15.10;99.90;;;;;;5035686;28;20031;-68
2022/10/17 00:43:48;;;;;;;23.60;8.43;;;15.00;99.90;;;;;;5036033;28;20048;-68
2022/10/17 00:46:14;;;;;;;11.73;7.22;;;15.10;99.90;;;;;;5036050;28;20058;-68
2022/10/17 00:48:40;;;;;;;14.95;6.95;;;15.20;99.90;;;;;;5036183;28;20029;-68
2022/10/17 00:51:05;;;;;;;13.02;7.45;;;15.20;99.90;;;;;;5035905;28;20038;-68
2022/10/17 00:53:32;;;;;;;13.55;7.50;;;15.30;99.90;;;;;;5036400;28;20029;-67
2022/10/17 00:55:57;;;;;;;14.10;7.15;;;15.20;99.90;;;;;;5035387;28;20034;-67
2022/10/17 00:58:23;;;;;;;11.20;7.13;;;15.10;99.90;;;;;;5035713;28;20474;-67
2022/10/17 01:00:49;;;;;;;11.25;7.75;;;15.10;99.90;;;;;;5036027;28;20030;-67
2022/10/17 01:03:15;;;;;;;14.10;7.57;;;15.10;99.90;;;;;;5036256;28;20463;-67
2022/10/17 01:05:41;;;;;;;;;;;14.90;99.90;;;;;;5035859;28;20030;-67
2022/10/17 01:08:07;;;;;;;13.13;7.60;;;14.90;99.90;;;;;;5035309;28;19905;-67
2022/10/17 01:10:53;;;;;;;14.68;7.55;;;14.90;99.90;;;;;;5017343;28;20033;-67
2022/10/17 01:13:34;;;;;;;14.45;8.45;;;14.90;99.90;;;;;;5035851;28;20419;-67
2022/10/17 01:16:08;;;;;;;11.73;7.57;;;14.80;99.90;;;;;;5035745;28;20091;-67
2022/10/17 01:18:39;;;;;;;12.35;7.72;;;14.90;99.90;;;;;;5017578;28;20431;-67
2022/10/17 01:21:25;;;;;;;14.10;6.80;;;14.80;99.90;;;;;;5035370;28;20029;-67
2022/10/17 01:24:35;;;;;;;27.75;8.05;;;14.90;99.90;;;;;;5035557;28;20087;-67
2022/10/17 01:27:21;;;;;;;11.85;6.70;;;14.80;99.90;;;;;;5035344;28;20385;-67
2022/10/17 01:30:05;;;;;;;12.63;6.03;;;14.80;99.90;;;;;;5035442;28;20036;-67
2022/10/17 01:32:41;;;;;;;13.80;5.97;;;14.70;99.90;;;;;;5035025;28;20047;-67
2022/10/17 01:35:26;;;;;;;8.63;5.93;;;14.70;99.90;;;;;;5033840;28;20064;-67
2022/10/17 01:38:11;;;;;;;13.82;5.72;;;14.70;99.90;;;;;;5035311;28;20488;-67
2022/10/17 01:41:06;;;;;;;10.45;5.40;;;14.80;99.90;;;;;;5035422;28;20041;-67
2022/10/17 01:43:43;;;;;;;11.77;6.03;;;14.80;99.90;;;;;;5017770;28;20021;-67
2022/10/17 01:46:35;;;;;;;9.30;5.03;;;14.80;99.90;;;;;;5035110;28;20474;-67
2022/10/17 01:49:02;;;;;;;12.00;6.20;;;14.80;99.90;;;;;;5026463;28;20037;-67
2022/10/17 01:51:34;;;;;;;10.63;4.50;;;14.80;99.90;;;;;;5034778;28;20029;-67
2022/10/17 01:54:03;;;;;;;7.28;4.45;;;14.90;99.90;;;;;;5035187;28;20029;-68
2022/10/17 01:56:31;;;;;;;11.00;4.57;;;15.00;99.90;;;;;;5034539;28;20022;-67
2022/10/17 01:59:05;;;;;;;11.27;5.63;;;14.90;99.90;;;;;;5034800;28;20022;-67
2022/10/17 02:01:33;;;;;;;8.52;4.88;;;14.90;99.90;;;;;;5033910;28;20445;-67
2022/10/17 02:04:00;;;;;;;8.52;4.57;;;14.80;99.90;;;;;;5035252;28;20028;-67
2022/10/17 02:06:26;;;;;;;8.80;4.03;;;14.80;99.90;;;;;;5035395;28;20068;-67
2022/10/17 02:08:51;;;;;;;8.93;4.60;;;14.70;99.90;;;;;;5034468;28;20597;-67
2022/10/17 02:11:22;;;;;;;7.53;4.30;;;14.80;99.90;;;;;;5034165;28;20033;-67
2022/10/17 02:13:51;;;;;;;13.05;4.32;;;14.80;99.90;;;;;;5034529;28;20171;-67
2022/10/17 02:16:19;;;;;;;6.72;4.28;;;14.90;99.90;;;;;;5032975;28;20112;-67
2022/10/17 02:19:16;;;;;;;7.45;4.63;;;14.80;99.90;;;;;;5034771;28;20029;-68
2022/10/17 02:21:52;;;;;;;7.85;3.85;;;14.70;99.90;;;;;;5034418;28;20104;-67
2022/10/17 02:24:27;;;;;;;9.20;3.55;;;14.70;99.90;;;;;;5033392;28;20029;-67
2022/10/17 02:27:03;;;;;;;10.98;4.07;;;14.70;99.90;;;;;;5033009;28;20425;-68
2022/10/17 02:29:33;;;;;;;9.32;3.40;;;14.60;99.90;;;;;;5016207;28;20029;-68
2022/10/17 02:32:05;;;;;;;7.22;4.60;;;14.70;99.90;;;;;;5033747;28;20100;-68
2022/10/17 02:34:36;;;;;;;9.15;3.70;;;14.70;99.90;;;;;;5033990;28;20031;-68
2022/10/17 02:37:05;;;;;;;7.50;3.70;;;14.70;99.90;;;;;;5034112;28;20029;-68
2022/10/17 02:39:33;;;;;;;5.53;3.35;;;14.80;99.90;;;;;;5015828;28;20026;-68
2022/10/17 02:42:02;;;;;;;6.68;3.45;;;14.70;99.90;;;;;;5033749;28;20028;-68
2022/10/17 02:44:29;;;;;;;11.65;3.72;;;14.60;99.90;;;;;;5033819;28;20022;-69
2022/10/17 02:47:03;;;;;;;7.38;3.17;;;14.50;99.90;;;;;;5033904;28;20029;-68
2022/10/17 02:49:38;;;;;;;7.07;3.85;;;14.60;99.90;;;;;;5033673;28;20017;-68
2022/10/17 02:52:18;;;;;;;8.55;3.42;;;14.50;99.90;;;;;;5033510;28;20033;-68
2022/10/17 02:55:01;;;;;;;10.43;4.32;;;14.70;99.90;;;;;;5015677;28;20028;-68
2022/10/17 02:57:34;;;;;;;6.18;3.22;;;14.60;99.90;;;;;;5033650;28;20026;-68
2022/10/17 03:00:01;;;;;;;8.38;3.67;;;14.60;99.90;;;;;;5034048;28;20139;-68
2022/10/17 03:02:27;;;;;;;10.27;3.72;;;14.60;99.90;;;;;;5033180;28;20065;-68
2022/10/17 03:04:53;;;;;;;12.02;3.45;;;14.60;99.90;;;;;;5033911;28;20030;-67
2022/10/17 03:07:18;;;;;;;8.00;3.20;;;14.60;99.90;;;;;;5033266;28;20048;-67
2022/10/17 03:09:44;;;;;;;6.30;2.60;;;14.60;99.90;;;;;;5033124;28;20378;-67
2022/10/17 03:12:09;;;;;;;7.47;3.13;;;14.70;99.90;;;;;;5033120;28;20026;-68
2022/10/17 03:14:35;;;;;;;8.83;3.40;;;14.70;99.90;;;;;;5033027;28;20048;-66
2022/10/17 03:17:00;;;;;;;6.30;2.70;;;14.60;99.90;;;;;;5014713;28;20021;-67
2022/10/17 03:19:26;;;;;;;7.13;3.10;;;14.60;99.90;;;;;;5033035;28;20021;-67
2022/10/17 03:21:51;;;;;;;4.70;3.23;;;14.60;99.90;;;;;;5033044;28;20025;-66
2022/10/17 03:24:17;;;;;;;3.90;2.80;;;14.50;99.90;;;;;;5015745;28;20026;-67
2022/10/17 03:26:42;;;;;;;5.83;3.13;;;14.50;99.90;;;;;;5033005;28;20604;-68
2022/10/17 03:29:08;;;;;;;6.20;3.57;;;14.60;99.90;;;;;;5033634;28;20029;-68
2022/10/17 03:31:33;;;;;;;6.37;3.20;;;14.60;99.90;;;;;;5033042;28;20486;-68
2022/10/17 03:34:00;;;;;;;8.43;3.20;;;14.50;99.90;;;;;;5032984;28;20048;-66
2022/10/17 03:36:26;;;;;;;6.10;3.00;;;14.60;99.90;;;;;;5033088;28;20076;-68
2022/10/17 03:38:54;;;;;;;5.17;3.33;;;14.50;99.90;;;;;;5032948;28;20056;-68
2022/10/17 03:41:20;;;;;;;5.22;3.00;;;14.60;99.90;;;;;;5032636;28;20021;-68
2022/10/17 03:43:46;;;;;;;7.35;3.22;;;14.70;99.90;;;;;;5032927;28;20563;-68
2022/10/17 03:46:11;;;;;;;8.80;3.17;;;14.60;99.90;;;;;;5033083;28;20029;-65
2022/10/17 03:48:37;;;;;;;6.13;3.03;;;14.60;99.90;;;;;;5032895;28;20096;-66
2022/10/17 03:51:08;;;;;;;5.17;3.27;;;14.70;99.90;;;;;;5033113;28;20029;-67
2022/10/17 03:53:34;;;;;;;6.75;3.08;;;14.70;99.90;;;;;;5032946;28;20058;-67
2022/10/17 03:56:13;;;;;;;10.23;3.67;;;14.60;99.90;;;;;;5032482;28;20478;-67
2022/10/17 03:58:40;;;;;;;5.55;3.80;;;14.60;99.90;;;;;;5035551;28;20183;-67
2022/10/17 04:01:07;;;;;;;11.77;4.13;;;14.50;99.90;;;;;;5036858;28;20379;-66
2022/10/17 04:03:33;;;;;;;6.50;3.63;;;14.30;99.90;;;;;;5036705;28;20033;-67
2022/10/17 04:05:59;;;;;;;4.97;3.30;;;14.20;99.90;;;;;;5036696;28;20387;-67
2022/10/17 04:08:25;;;;;;;6.40;3.97;;;14.30;99.90;;;;;;5036575;28;20105;-66
2022/10/17 04:10:51;;;;;;;10.90;3.85;;;14.10;99.90;;;;;;5036304;28;20025;-67
2022/10/17 04:13:17;;;;;;;7.53;3.97;;;14.10;99.90;;;;;;5036902;28;20034;-67
2022/10/17 04:15:58;;;;;;;11.07;3.75;;;14.00;99.90;;;;;;5037123;28;20034;-67
2022/10/17 04:18:24;;;;;;;6.03;3.63;;;14.00;99.90;;;;;;5036469;28;20053;-67
2022/10/17 04:20:50;;;;;;;8.60;3.55;;;13.90;99.90;;;;;;5036896;28;20021;-68
2022/10/17 04:23:16;;;;;;;6.65;3.90;;;14.00;99.90;;;;;;5036227;28;20470;-68
2022/10/17 04:25:41;;;;;;;9.03;3.63;;;13.90;99.90;;;;;;5036009;28;20026;-68
2022/10/17 04:28:07;;;;;;;8.90;3.70;;;13.80;99.90;;;;;;5036268;28;20029;-70
2022/10/17 04:30:32;;;;;;;8.63;3.83;;;14.00;99.90;;;;;;5036246;28;20041;-73
2022/10/17 04:32:58;;;;;;;8.60;3.57;;;14.10;99.90;;;;;;5036329;28;20470;-71
2022/10/17 04:35:23;;;;;;;9.70;4.00;;;14.00;99.90;;;;;;5036256;28;20291;-68
2022/10/17 04:37:49;;;;;;;10.67;3.80;;;13.90;99.90;;;;;;5036796;28;20025;-70
2022/10/17 04:40:14;;;;;;;8.17;3.67;;;13.90;99.90;;;;;;5035804;28;20426;-70
2022/10/17 04:42:40;;;;;;;8.73;3.70;;;13.90;99.90;;;;;;5036117;28;20037;-71
2022/10/17 04:45:06;;;;;;;10.90;4.37;;;14.00;99.90;;;;;;5018246;28;20406;-71
2022/10/17 04:47:32;;;;;;;7.72;3.95;;;14.10;99.90;;;;;;5006439;28;20037;-70
2022/10/17 04:49:57;;;;;;;8.30;3.50;;;14.10;99.90;;;;;;5015076;28;20129;-71
2022/10/17 04:52:24;;;;;;;8.20;3.50;;;14.10;99.90;;;;;;4998472;28;20029;-70
2022/10/17 04:54:50;;;;;;;8.48;4.65;;;14.10;99.90;;;;;;4998651;28;20398;-70
2022/10/17 04:57:17;;;;;;;9.85;4.00;;;14.00;99.90;;;;;;5016688;28;20133;-71
2022/10/17 04:59:42;;;;;;;7.43;4.13;;;14.00;99.90;;;;;;5016846;28;20030;-71
2022/10/17 05:02:08;;;;;;;11.43;3.77;;;13.80;99.90;;;;;;5017000;28;20029;-71
2022/10/17 05:04:33;;;;;;;6.93;4.00;;;13.70;99.90;;;;;;5017147;28;20026;-71
2022/10/17 05:06:59;;;;;;;10.70;4.70;;;13.80;99.90;;;;;;5017224;28;20109;-71
2022/10/17 05:09:25;;;;;;;9.90;4.10;;;13.80;99.90;;;;;;5016694;28;20037;-70
2022/10/17 05:11:50;;;;;;;9.18;4.32;;;13.80;99.90;;;;;;5017026;28;20029;-70
2022/10/17 05:14:16;;;;;;;13.17;3.97;;;13.70;99.90;;;;;;5016241;28;20164;-71
2022/10/17 05:16:41;;;;;;;5.87;4.30;;;13.70;99.90;;;;;;5021922;28;20025;-70
2022/10/17 05:19:07;;;;;;;6.43;4.33;;;13.70;99.90;;;;;;5037300;28;20022;-70
2022/10/17 05:21:32;;;;;;;8.23;3.63;;;13.80;99.90;;;;;;5019944;28;20120;-70
2022/10/17 05:23:58;;;;;;;18.93;5.13;;;13.80;99.90;;;;;;5019977;28;20025;-73
2022/10/17 05:26:24;;;;;;;8.30;5.25;;;13.80;99.90;;;;;;5037967;28;20033;-73
2022/10/17 05:28:51;;;;;;;;;;;13.80;99.90;;;;;;5040567;28;20037;-74
2022/10/17 05:31:17;;;;;;;9.23;4.93;;;13.80;99.90;;;;;;5024856;28;20358;-74
2022/10/17 05:33:43;;;;;;;7.82;3.85;;;13.90;99.90;;;;;;5049053;28;20037;-74
2022/10/17 05:36:09;;;;;;;9.88;4.30;;;13.80;99.90;;;;;;5029617;28;20033;-74
2022/10/17 05:38:35;;;;;;;11.43;4.03;;;13.80;99.90;;;;;;5044264;28;20040;-74
2022/10/17 05:41:02;;;;;;;7.05;3.92;;;13.80;99.90;;;;;;5041010;28;20044;-74
2022/10/17 05:43:28;;;;;;;10.80;4.38;;;13.80;99.90;;;;;;5019970;28;20021;-74
2022/10/17 05:45:54;;;;;;;;;;;13.90;99.90;;;;;;5019094;28;20091;-73
2022/10/17 05:48:21;;;;;;;9.63;4.53;;;14.00;99.90;;;;;;5020691;28;20309;-74
2022/10/17 05:50:47;;;;;;;10.10;4.20;;;14.10;99.90;;;;;;5038381;28;20026;-74
2022/10/17 05:53:13;;;;;;;8.65;3.85;;;14.10;99.90;;;;;;5045395;28;20045;-73
2022/10/17 05:55:39;;;;;;;12.32;4.03;;;14.10;99.90;;;;;;5042235;28;20037;-73
2022/10/17 05:58:05;;;;;;;14.20;4.60;;;14.00;99.90;;;;;;5039941;28;20029;-73
2022/10/17 06:00:30;;;;;;;15.65;4.45;;;14.00;99.90;;;;;;5034560;28;20102;-72
2022/10/17 06:02:56;;;;;;;15.40;4.00;;;13.90;99.90;;;;;;5016485;28;20022;-73
2022/10/17 06:05:21;;;;;;;8.73;4.20;;;13.80;99.90;;;;;;5016350;28;20203;-75
2022/10/17 06:07:48;;;;;;;8.82;4.32;;;13.80;99.90;;;;;;5034865;28;20051;-74
2022/10/17 06:10:16;;;;;;;9.57;4.28;;;14.00;99.90;;;;;;5037536;28;20470;-74
2022/10/17 06:12:42;;;;;;;11.35;4.25;;;14.10;99.90;;;;;;5023263;28;20029;-74
2022/10/17 06:15:08;;;;;;;7.18;4.10;;;14.20;99.90;;;;;;5025731;28;20095;-74
2022/10/17 06:17:34;;;;;;;10.90;4.63;;;14.30;99.90;;;;;;5026024;28;20032;-74
2022/10/17 06:19:59;;;;;;;11.10;4.90;;;14.20;99.90;;;;;;5028710;28;20025;-73
2022/10/17 06:22:25;;;;;;;12.33;4.73;;;14.20;99.90;;;;;;5029666;28;20093;-75
2022/10/17 06:24:52;;;;;;;11.70;5.00;;;14.20;99.90;;;;;;5028205;28;20025;-74
2022/10/17 06:27:18;;;;;;;15.52;5.13;;;14.30;99.90;;;;;;5026269;28;20053;-75
2022/10/17 06:29:45;;;;;;;10.82;3.83;;;14.30;99.90;;;;;;5019348;28;20030;-74
2022/10/17 06:32:11;;;;;;;10.45;4.55;;;14.20;99.90;;;;;;5043436;28;20406;-74
2022/10/17 06:34:36;;;;;;;9.55;4.47;;;14.20;99.90;;;;;;5024796;28;20032;-74
2022/10/17 06:37:02;;;;;;;16.87;4.50;;;14.20;99.90;;;;;;5035769;28;20031;-73
2022/10/17 06:39:32;;;;;;;12.93;4.77;;;14.20;99.90;;;;;;5017170;28;20021;-73
2022/10/17 06:41:59;;;;;;;8.68;4.68;;;14.10;99.90;;;;;;5038314;28;20091;-74
2022/10/17 06:44:29;;;;;;;15.48;5.38;;;14.00;99.90;;;;;;5016464;28;20029;-74
2022/10/17 06:46:55;;;;;;;9.90;4.63;;;14.20;99.90;;;;;;5015484;28;20024;-74
2022/10/17 06:49:20;;;;;;;14.50;6.50;;;14.20;99.90;;;;;;5033273;28;20025;-74
2022/10/17 06:51:46;;;;;;;14.87;5.50;;;14.10;99.90;;;;;;5012269;28;98079;-75
2022/10/17 06:54:11;;;;;;;13.67;5.93;;;14.10;99.90;;;;;;5033997;28;20055;-74
2022/10/17 06:56:37;;;;;;;13.50;4.70;;;14.20;99.90;;;;;;5016317;28;20129;-75
2022/10/17 06:59:02;;;;;;;16.00;5.07;;;14.40;99.90;;;;;;5034951;28;20521;-74
2022/10/17 07:01:30;;;;;;;13.60;4.87;;;14.40;99.90;;;;;;5017150;28;20168;-75
2022/10/17 07:03:56;;;;;;;10.02;4.47;;;14.40;99.90;;;;;;5017023;28;20026;-73
2022/10/17 07:06:23;;;;;;;16.23;5.10;;;14.40;99.90;;;;;;5017271;28;20167;-74
2022/10/17 07:08:49;;;;;;;10.85;4.88;;;14.30;99.90;;;;;;5018071;28;20107;-74
2022/10/17 07:11:18;;;;;;;12.98;4.68;;;14.20;99.90;;;;;;5017826;28;20077;-74
2022/10/17 07:13:44;;;;;;;9.25;4.35;;;14.20;99.90;;;;;;5020768;28;20116;-74
2022/10/17 07:16:11;;;;;;;16.48;5.13;;;14.50;99.90;;;;;;5021559;28;20064;-74
2022/10/17 07:18:36;;;;;;;13.27;5.05;;;14.60;99.90;;;;;;5019305;28;20025;-74
2022/10/17 07:21:02;;;;;;;11.20;4.70;;;14.50;99.90;;;;;;5036414;28;20028;-74
2022/10/17 07:23:28;;;;;;;12.20;4.32;;;14.50;99.90;;;;;;5036914;28;20099;-74
2022/10/17 07:25:59;;;;;;;15.93;4.65;;;14.50;99.90;;;;;;5036115;28;20064;-74
2022/10/17 07:28:24;;;;;;;9.90;4.97;;;14.60;99.90;;;;;;5016308;28;20026;-74
2022/10/17 07:30:50;;;;;;;12.17;4.40;;;14.50;99.90;;;;;;5033821;28;20031;-75
2022/10/17 07:33:15;;;;;;;12.10;4.73;;;14.70;99.90;;;;;;5015073;28;20026;-74
2022/10/17 07:35:41;;;;;;;10.13;4.13;;;14.70;99.90;;;;;;5033326;28;20032;-74
2022/10/17 07:38:07;;;;;;;7.80;4.37;;;14.80;99.90;;;;;;5016402;28;20264;-73
2022/10/17 07:40:32;;;;;;;12.68;4.35;;;14.70;99.90;;;;;;5015778;28;20068;-74
2022/10/17 07:42:58;;;;;;;12.40;4.93;;;14.70;99.90;;;;;;5017300;28;20026;-74
2022/10/17 07:45:26;;;;;;;11.60;4.63;;;14.80;99.90;;;;;;5033452;28;20309;-73
2022/10/17 07:47:55;;;;;;;10.05;4.70;;;14.90;99.90;;;;;;5015679;28;20035;-73
2022/10/17 07:50:20;;;;;;;14.13;4.50;;;15.00;99.90;;;;;;5015941;28;20026;-75
2022/10/17 07:52:46;;;;;;;14.97;4.20;;;15.00;99.90;;;;;;5033477;28;20048;-73
2022/10/17 07:55:11;;;;;;;12.60;4.40;;;15.30;99.90;;;;;;5016879;28;20033;-74
2022/10/17 07:57:39;;;;;;;17.40;4.40;;;15.30;99.90;;;;;;5015674;28;20268;-74
2022/10/17 08:00:06;;;;;;;12.90;4.97;;;15.40;99.90;;;;;;5033540;28;20067;-74
2022/10/17 08:02:31;;;;;;;10.32;4.53;;;15.50;99.90;;;;;;5033075;28;20079;-74
2022/10/17 08:04:57;;;;;;;13.93;4.40;;;15.40;99.90;;;;;;5015583;28;20025;-74
2022/10/17 08:07:22;;;;;;;11.93;4.17;;;15.50;99.90;;;;;;5015989;28;20129;-74
2022/10/17 08:09:48;;;;;;;15.00;4.50;;;15.50;99.90;;;;;;5033601;28;20033;-74
2022/10/17 08:12:14;;;;;;;9.90;4.53;;;15.50;99.90;;;;;;5033727;28;20085;-75
2022/10/17 08:14:41;;;;;;;8.90;3.70;;;15.40;99.90;;;;;;5018081;28;20030;-74
2022/10/17 08:17:07;;;;;;;10.55;4.45;;;15.50;99.90;;;;;;5017689;28;20026;-74
2022/10/17 08:19:32;;;;;;;8.38;4.03;;;15.60;99.90;;;;;;5033758;28;20099;-74
2022/10/17 08:21:58;;;;;;;11.13;4.00;;;16.00;99.90;;;;;;5015237;28;20030;-73
2022/10/17 08:24:24;;;;;;;6.93;3.73;;;16.10;99.90;;;;;;5032930;28;20029;-74
2022/10/17 08:26:52;;;;;;;11.48;3.47;;;16.20;99.90;;;;;;5014995;28;20109;-74
2022/10/17 08:29:18;;;;;;;7.40;3.80;;;16.40;99.90;;;;;;5033147;28;20133;-74
2022/10/17 08:31:43;;;;;;;5.72;3.15;;;16.60;99.90;;;;;;5033261;28;20074;-74
2022/10/17 08:34:09;;;;;;;7.63;3.23;;;16.70;99.90;;;;;;5033099;28;20034;-74
2022/10/17 08:36:34;;;;;;;6.75;3.25;;;16.70;99.90;;;;;;5033168;28;20501;-74
2022/10/17 08:39:00;;;;;;;10.33;3.77;;;16.90;99.90;;;;;;5033868;28;20033;-74
2022/10/17 08:42:02;;;;;;;9.63;3.33;;;17.00;99.90;;;;;;5019187;28;20275;-75
2022/10/17 08:45:03;;;;;;;11.73;4.00;;;17.00;99.90;;;;;;5039819;28;20033;-74
2022/10/17 08:47:42;;;;;;;12.45;4.05;;;17.10;99.90;;;;;;5020017;28;20025;-73
2022/10/17 08:50:24;;;;;;;13.60;5.03;;;17.30;99.90;;;;;;5038981;28;20467;-74
2022/10/17 08:52:54;;;;;;;9.77;3.72;;;17.50;99.90;;;;;;5037003;28;20048;-73
2022/10/17 08:55:33;;;;;;;5.97;3.42;;;17.60;99.90;;;;;;5018684;28;20025;-73
2022/10/17 08:57:59;;;;;;;7.57;3.75;;;17.90;99.90;;;;;;5018409;28;20116;-74
2022/10/17 09:00:27;;;;;;;11.98;4.00;;;18.00;99.90;;;;;;5036221;28;20021;-74
2022/10/17 09:03:20;;;;;;;7.15;3.67;;;18.10;99.90;;;;;;5017928;28;20394;-74
2022/10/17 09:05:54;;;;;;;10.77;3.90;;;18.40;99.90;;;;;;5018222;28;20037;-74
2022/10/17 09:08:32;;;;;;;12.30;3.60;;;18.60;99.90;;;;;;5017881;28;20397;-73
2022/10/17 09:11:23;;;;;;;8.50;3.53;;;18.80;99.90;;;;;;5017732;28;20030;-74
2022/10/17 09:14:18;;;;;;;6.63;2.97;;;19.20;99.90;;;;;;5017681;28;20036;-74
2022/10/17 09:17:08;;;;;;;7.22;3.90;;;19.60;99.90;;;;;;5035676;28;20544;-74
2022/10/17 09:19:58;;;;;;;8.20;3.40;;;19.80;99.90;;;;;;5035616;28;20028;-74
2022/10/17 09:22:29;;;;;;;7.13;3.30;;;19.80;99.90;;;;;;5018023;28;20574;-74
2022/10/17 09:24:58;;;;;;;7.82;3.13;;;19.90;99.90;;;;;;5035898;28;20072;-74
2022/10/17 09:27:44;;;;;;;10.25;2.90;;;20.00;99.90;;;;;;5035594;28;20040;-74
2022/10/17 09:30:37;;;;;;;8.73;3.20;;;20.10;99.90;;;;;;5035814;28;20022;-74
2022/10/17 09:33:12;;;;;;;12.40;3.13;;;20.20;99.90;;;;;;5035648;28;20041;-74
2022/10/17 09:35:40;;;;;;;10.17;2.67;;;20.40;99.90;;;;;;5036156;28;20028;-74
2022/10/17 09:38:22;;;;;;;10.25;3.42;;;20.60;99.90;;;;;;5035682;28;20027;-73
2022/10/17 09:40:55;;;;;;;8.68;3.65;;;20.90;99.90;;;;;;5017453;28;20033;-74
2022/10/17 09:43:21;;;;;;;6.65;2.80;;;21.30;99.90;;;;;;5036310;28;20557;-73
2022/10/17 09:46:21;;;;;;;4.15;2.80;;;22.10;99.90;;;;;;5026462;28;20068;-73
2022/10/17 09:48:56;;;;;;;6.45;2.78;;;23.00;99.90;;;;;;5018103;28;20034;-73
2022/10/17 09:51:23;;;;;;;5.22;2.38;;;23.80;99.90;;;;;;5015734;28;20038;-73
2022/10/17 09:53:55;;;;;;;6.82;2.83;;;24.90;99.90;;;;;;5015558;28;20064;-73
2022/10/17 09:56:21;;;;;;;4.47;2.30;;;25.30;99.90;;;;;;4996973;28;20476;-73
2022/10/17 09:58:56;;;;;;;4.50;2.97;;;25.30;99.90;;;;;;4997718;28;20080;-72
2022/10/17 10:01:30;;;;;;;10.77;2.88;;;25.00;99.90;;;;;;4997498;28;20535;-73
2022/10/17 10:04:12;;;;;;;5.07;2.75;;;26.00;99.90;;;;;;4997670;28;20036;-74
2022/10/17 10:06:39;;;;;;;8.65;2.80;;;27.40;99.90;;;;;;4997664;28;20022;-73
2022/10/17 10:09:05;;;;;;;11.55;3.88;;;29.10;97.40;;;;;;5014952;28;20026;-73
2022/10/17 10:11:50;;;;;;;5.32;2.78;;;30.40;95.40;;;;;;5014745;28;20068;-74
2022/10/17 10:14:27;;;;;;;4.97;2.55;;;31.90;92.30;;;;;;4997184;28;20056;-74
2022/10/17 10:16:53;;;;;;;4.95;2.38;;;32.90;90.10;;;;;;5015509;28;20041;-73
2022/10/17 10:19:36;;;;;;;15.02;2.35;;;32.90;88.20;;;;;;5014696;28;20511;-74
2022/10/17 10:22:15;;;;;;;6.65;2.35;;;33.30;85.80;;;;;;4997066;28;20049;-74
2022/10/17 10:24:41;;;;;;;10.02;2.58;;;33.40;84.90;;;;;;4996814;28;20018;-73
2022/10/17 10:27:12;;;;;;;5.40;2.00;;;34.00;83.20;;;;;;5014426;28;20026;-73
2022/10/17 10:29:52;;;;;;;5.53;2.05;;;34.00;80.80;;;;;;5014759;28;20026;-74
2022/10/17 10:32:30;;;;;;;6.88;2.40;;;34.00;80.90;;;;;;5014730;28;20028;-74
2022/10/17 10:35:20;;;;;;;5.53;2.00;;;34.50;79.20;;;;;;4997881;28;20438;-74
2022/10/17 10:37:49;;;;;;;5.10;2.22;;;34.70;78.20;;;;;;4998516;28;20083;-75
2022/10/17 10:40:29;;;;;;;3.60;2.22;;;34.20;77.10;;;;;;5016322;28;20072;-74
2022/10/17 10:42:57;;;;;;;5.32;2.35;;;33.70;78.60;;;;;;4997347;28;20033;-74
2022/10/17 10:45:34;;;;;;;7.93;2.20;;;33.50;78.70;;;;;;5014944;28;20052;-74
2022/10/17 10:48:04;;;;;;;6.88;2.53;;;33.30;78.50;;;;;;5015176;28;20037;-74
2022/10/17 10:50:42;;;;;;;9.70;2.03;;;32.80;79.60;;;;;;5014156;28;20498;-74
2022/10/17 10:53:38;;;;;;;8.38;2.47;;;31.20;81.00;;;;;;4996512;28;20126;-73
2022/10/17 10:56:27;;;;;;;7.57;2.60;;;28.90;85.00;;;;;;5014197;28;20101;-73
2022/10/17 10:59:12;;;;;;;4.63;2.55;;;27.00;90.20;;;;;;5014019;28;20048;-73
2022/10/17 11:01:51;;;;;;;4.40;2.05;;;25.80;92.30;;;;;;4996146;28;20018;-74
2022/10/17 11:04:26;;;;;;;7.53;2.22;;;24.10;94.70;;;;;;5012419;28;20030;-74
2022/10/17 11:06:57;;;;;;;5.35;2.60;;;23.50;96.80;;;;;;5013686;28;20100;-73
2022/10/17 11:10:00;;;;;;;6.35;2.38;;;23.30;98.10;;;;;;5013695;28;20084;-74
2022/10/17 11:13:06;;;;;;;3.95;2.45;;;23.20;99.00;;;;;;5013447;28;20056;-72
2022/10/17 11:16:10;;;;;;;7.30;2.95;;;23.10;99.90;;;;;;5013654;28;20041;-73
2022/10/17 11:18:47;;;;;;;7.55;2.38;;;23.00;99.90;;;;;;4970178;28;20030;-73
2022/10/17 11:21:35;;;;;;;7.38;3.58;;;23.00;99.90;;;;;;5013729;28;20491;-73
2022/10/17 11:24:27;;;;;;;4.05;2.25;;;22.90;99.90;;;;;;4996127;28;20026;-73
2022/10/17 11:27:04;;;;;;;6.63;2.50;;;22.90;99.90;;;;;;5013468;28;20056;-72
2022/10/17 11:29:37;;;;;;;8.13;2.83;;;22.90;99.90;;;;;;5013728;28;20450;-72
2022/10/17 11:32:23;;;;;;;3.88;2.17;;;22.60;99.90;;;;;;4996314;28;20022;-72
2022/10/17 11:34:58;;;;;;;7.68;3.10;;;22.70;99.90;;;;;;5013793;28;20022;-72
2022/10/17 11:37:31;;;;;;;6.63;2.50;;;22.60;99.90;;;;;;5013879;28;20026;-72
2022/10/17 11:40:01;;;;;;;5.53;2.47;;;22.60;99.90;;;;;;4995820;28;20171;-73
2022/10/17 11:42:33;;;;;;;5.88;2.40;;;22.60;99.90;;;;;;4995574;28;20022;-73
2022/10/17 11:45:05;;;;;;;5.72;2.35;;;22.60;99.90;;;;;;5013520;28;20022;-74
2022/10/17 11:47:59;;;;;;;8.32;2.83;;;22.60;99.90;;;;;;5007348;28;20021;-73
2022/10/17 11:50:29;;;;;;;6.00;2.53;;;22.50;99.90;;;;;;5015698;28;20087;-74
2022/10/17 11:53:03;;;;;;;6.97;2.22;;;22.60;99.90;;;;;;5016158;28;20040;-74
2022/10/17 11:55:31;;;;;;;5.50;2.38;;;22.80;99.90;;;;;;5015712;28;20151;-73
2022/10/17 11:58:24;;;;;;;8.45;2.72;;;22.90;99.90;;;;;;5015940;28;20022;-73
2022/10/17 12:01:32;;;;;;;6.75;2.65;;;22.90;99.90;;;;;;5033599;28;20036;-73
2022/10/17 12:04:31;;;;;;;6.97;3.30;;;23.00;99.90;;;;;;4936946;29;20023;-74
2022/10/17 12:07:28;;;;;;;6.05;2.78;;;23.00;99.90;;;;;;4953178;29;20083;-72
2022/10/17 12:09:58;;;;;;;8.05;2.45;;;23.00;99.90;;;;;;4953270;29;20036;-72
2022/10/17 12:12:33;;;;;;;6.55;2.47;;;23.00;99.90;;;;;;4957836;29;20031;-72
2022/10/17 12:15:10;;;;;;;7.30;2.85;;;23.00;99.90;;;;;;4941779;29;20558;-73
2022/10/17 12:17:39;;;;;;;4.85;2.15;;;23.10;99.90;;;;;;4953283;28;20095;-73
2022/10/17 12:20:20;;;;;;;5.88;2.50;;;23.20;99.90;;;;;;4939581;29;20023;-73
2022/10/17 12:23:15;;;;;;;6.90;3.10;;;23.30;99.90;;;;;;4956198;29;20103;-73
2022/10/17 12:26:01;;;;;;;5.57;2.15;;;23.30;99.90;;;;;;4943521;29;20086;-72
2022/10/17 12:28:36;;;;;;;7.90;2.72;;;23.40;99.90;;;;;;4955933;29;20055;-72
2022/10/17 12:31:11;;;;;;;6.78;2.58;;;23.40;99.90;;;;;;4956292;29;20516;-72
2022/10/17 12:33:52;;;;;;;5.55;2.50;;;23.40;99.90;;;;;;4940160;29;20554;-72
2022/10/17 12:36:19;;;;;;;8.55;2.72;;;23.20;99.90;;;;;;4939611;29;20098;-73
2022/10/17 12:38:51;;;;;;;10.63;2.83;;;23.20;99.90;;;;;;5027200;28;20060;-72
2022/10/17 12:41:36;;;;;;;7.05;2.55;;;23.20;99.90;;;;;;5035819;28;20327;-71
2022/10/17 12:44:22;;;;;;;9.52;2.75;;;23.30;99.90;;;;;;5036205;28;20029;-72
2022/10/17 12:46:50;;;;;;;3.92;2.40;;;23.30;99.90;;;;;;5036375;28;20025;-72
2022/10/17 12:49:39;;;;;;;8.05;2.72;;;23.50;99.90;;;;;;5036432;28;20457;-72
2022/10/17 12:52:30;;;;;;;5.43;2.42;;;23.50;99.90;;;;;;5018505;28;20065;-72
2022/10/17 12:55:02;;;;;;;7.00;2.88;;;23.70;99.90;;;;;;5036360;28;20068;-72
2022/10/17 12:57:39;;;;;;;4.55;2.60;;;23.80;99.90;;;;;;5036117;28;20023;-73
2022/10/17 13:00:23;;;;;;;6.70;2.40;;;23.80;99.90;;;;;;5034854;28;20013;-73
2022/10/17 13:02:53;;;;;;;6.07;2.67;;;23.70;99.90;;;;;;5035122;28;20367;-72
2022/10/17 13:05:23;;;;;;;8.38;2.90;;;23.80;99.90;;;;;;5036484;28;20540;-72
2022/10/17 13:07:50;;;;;;;3.22;2.53;;;23.90;99.90;;;;;;5036041;28;20043;-72